createdAt,value
2022-10-11T00:01:28.504Z,96899.78
2022-10-11T00:03:57.930Z,96904.66
2022-10-11T00:06:26.496Z,96900.88
2022-10-11T00:08:55.773Z,96901.19
2022-10-11T00:11:24.693Z,96911.25
2022-10-11T00:13:53.326Z,96908.19
2022-10-11T00:16:24.033Z,96911.97
2022-10-11T00:18:52.447Z,96910.91
2022-10-11T00:21:21.958Z,96918.13
2022-10-11T00:23:50.792Z,96922.59
2022-10-11T00:26:20.054Z,96926.03
2022-10-11T00:28:48.993Z,96933.59
2022-10-11T00:31:17.523Z,96941.97
2022-10-11T00:33:47.695Z,96928.16
2022-10-11T00:36:17.450Z,96937.63
2022-10-11T00:38:46.764Z,96954.63
2022-10-11T00:41:17.552Z,96936.56
2022-10-11T00:43:46.292Z,96947.28
2022-10-11T00:46:34.412Z,96951.84
2022-10-11T00:49:08.355Z,96947.69
2022-10-11T00:51:49.340Z,96952.53
2022-10-11T00:54:21.669Z,96955.13
2022-10-11T00:56:55.072Z,96951.44
2022-10-11T00:59:26.224Z,96964.28
2022-10-11T01:01:55.720Z,96954.72
2022-10-11T01:04:25.425Z,96958.97
2022-10-11T01:06:54.977Z,96960.63
2022-10-11T01:09:23.920Z,96956.25
2022-10-11T01:11:57.641Z,96957.44
2022-10-11T01:14:43.955Z,96969.25
2022-10-11T01:17:24.323Z,96957.88
2022-10-11T01:20:20.423Z,96951.72
2022-10-11T01:23:29.506Z,96941.78
2022-10-11T01:26:14.767Z,96938.50
2022-10-11T01:28:52.313Z,96931.75
2022-10-11T01:31:27.462Z,96928.13
2022-10-11T01:34:01.104Z,96936.69
2022-10-11T01:36:35.595Z,96929.69
2022-10-11T01:39:07.751Z,96936.34
2022-10-11T01:41:41.495Z,96933.63
2022-10-11T01:44:12.407Z,96935.59
2022-10-11T01:46:42.323Z,96929.09
2022-10-11T01:49:11.761Z,96937.91
2022-10-11T01:51:47.020Z,96934.72
2022-10-11T01:54:56.476Z,96941.56
2022-10-11T01:57:45.422Z,96938.13
2022-10-11T02:00:17.702Z,96936.03
2022-10-11T02:03:02.316Z,96930.84
2022-10-11T02:05:38.884Z,96927.56
2022-10-11T02:08:17.052Z,96928.31
2022-10-11T02:10:51.431Z,96929.84
2022-10-11T02:13:27.750Z,96927.63
2022-10-11T02:15:59.987Z,96917.09
2022-10-11T02:18:37.572Z,96921.94
2022-10-11T02:21:09.706Z,96929.03
2022-10-11T02:23:43.507Z,96930.22
2022-10-11T02:26:13.582Z,96932.75
2022-10-11T02:28:45.071Z,96936.47
2022-10-11T02:31:16.572Z,96944.38
2022-10-11T02:33:51.758Z,96941.91
2022-10-11T02:36:27.603Z,96947.56
2022-10-11T02:39:01.300Z,96949.00
2022-10-11T02:41:35.224Z,96947.41
2022-10-11T02:44:08.337Z,96954.63
2022-10-11T02:46:38.320Z,96966.41
2022-10-11T02:49:09.847Z,96969.47
2022-10-11T02:51:38.575Z,96960.72
2022-10-11T02:54:08.045Z,96968.44
2022-10-11T02:56:36.479Z,96964.84
2022-10-11T02:59:05.399Z,96967.09
2022-10-11T03:01:33.873Z,96963.06
2022-10-11T03:04:03.078Z,96965.53
2022-10-11T03:06:32.819Z,96967.22
2022-10-11T03:09:01.990Z,96962.59
2022-10-11T03:11:30.393Z,96970.28
2022-10-11T03:13:59.340Z,96978.19
2022-10-11T03:16:27.736Z,96979.38
2022-10-11T03:18:57.098Z,96974.50
2022-10-11T03:21:26.218Z,96980.19
2022-10-11T03:23:56.019Z,96983.75
2022-10-11T03:26:24.991Z,96977.72
2022-10-11T03:28:53.391Z,96982.91
2022-10-11T03:31:24.182Z,96985.13
2022-10-11T03:33:53.066Z,96980.78
2022-10-11T03:36:21.433Z,96982.66
2022-10-11T03:38:50.796Z,96982.91
2022-10-11T03:41:20.566Z,96977.63
2022-10-11T03:43:49.724Z,96980.69
2022-10-11T03:46:18.284Z,96982.34
2022-10-11T03:48:47.067Z,96984.00
2022-10-11T03:51:16.034Z,96991.66
2022-10-11T03:53:45.379Z,96994.63
2022-10-11T03:56:15.371Z,96990.72
2022-10-11T03:58:46.615Z,96993.78
2022-10-11T04:01:15.514Z,96980.34
2022-10-11T04:03:44.436Z,97002.28
2022-10-11T04:06:12.894Z,96994.97
2022-10-11T04:08:41.700Z,96995.56
2022-10-11T04:11:10.297Z,97000.16
2022-10-11T04:13:39.193Z,97001.28
2022-10-11T04:16:09.233Z,96994.63
2022-10-11T04:18:38.248Z,96991.47
2022-10-11T04:21:07.133Z,96989.94
2022-10-11T04:23:36.376Z,96997.94
2022-10-11T04:26:07.065Z,97000.19
2022-10-11T04:28:37.275Z,97000.78
2022-10-11T04:31:07.777Z,97001.13
2022-10-11T04:33:38.338Z,97003.59
2022-10-11T04:36:08.376Z,96997.00
2022-10-11T04:38:37.104Z,96999.94
2022-10-11T04:41:10.010Z,97000.66
2022-10-11T04:43:38.467Z,97009.44
2022-10-11T04:46:08.781Z,97005.63
2022-10-11T04:48:38.982Z,97008.34
2022-10-11T04:51:08.480Z,97014.03
2022-10-11T04:53:37.275Z,97011.31
2022-10-11T04:56:11.689Z,97016.84
2022-10-11T04:58:42.124Z,97009.03
2022-10-11T05:01:11.485Z,97023.25
2022-10-11T05:03:41.670Z,97008.69
2022-10-11T05:06:10.820Z,97018.03
2022-10-11T05:08:39.982Z,97021.81
2022-10-11T05:11:15.669Z,97025.72
2022-10-11T05:13:45.792Z,97026.78
2022-10-11T05:16:16.603Z,97024.44
2022-10-11T05:18:47.878Z,97029.28
2022-10-11T05:21:19.007Z,97026.09
2022-10-11T05:23:50.264Z,97034.81
2022-10-11T05:26:20.076Z,97037.06
2022-10-11T05:28:48.515Z,97041.44
2022-10-11T05:31:18.482Z,97037.78
2022-10-11T05:33:48.327Z,97044.03
2022-10-11T05:36:17.426Z,97047.72
2022-10-11T05:38:46.489Z,97047.50
2022-10-11T05:41:16.421Z,97049.13
2022-10-11T05:43:45.877Z,97050.53
2022-10-11T05:46:14.689Z,97061.78
2022-10-11T05:48:43.083Z,97058.81
2022-10-11T05:51:13.597Z,97063.53
2022-10-11T05:53:42.059Z,97062.56
2022-10-11T05:56:20.382Z,97072.38
2022-10-11T05:58:49.164Z,97070.94
2022-10-11T06:01:19.762Z,97079.94
2022-10-11T06:03:48.832Z,97083.25
2022-10-11T06:06:19.632Z,97075.44
2022-10-11T06:08:48.674Z,97075.78
2022-10-11T06:11:18.727Z,97077.69
2022-10-11T06:13:47.191Z,97080.41
2022-10-11T06:16:16.425Z,97080.47
2022-10-11T06:18:44.884Z,97090.91
2022-10-11T06:21:15.878Z,97086.59
2022-10-11T06:23:49.582Z,97089.13
2022-10-11T06:26:18.788Z,97088.63
2022-10-11T06:28:47.371Z,97087.06
2022-10-11T06:31:16.261Z,97093.91
2022-10-11T06:33:44.649Z,97091.53
2022-10-11T06:36:15.423Z,97085.84
2022-10-11T06:38:45.745Z,97088.34
2022-10-11T06:41:17.162Z,97098.72
2022-10-11T06:43:45.780Z,97102.25
2022-10-11T06:46:14.605Z,97099.53
2022-10-11T06:48:44.319Z,97104.75
2022-10-11T06:51:13.471Z,97107.00
2022-10-11T06:53:42.932Z,97109.72
2022-10-11T06:56:13.751Z,97111.47
2022-10-11T06:58:42.375Z,97108.25
2022-10-11T07:01:13.958Z,97113.78
2022-10-11T07:03:43.017Z,97111.88
2022-10-11T07:06:14.540Z,97118.25
2022-10-11T07:08:43.411Z,97117.28
2022-10-11T07:11:15.028Z,97125.06
2022-10-11T07:13:44.132Z,97114.22
2022-10-11T07:16:13.798Z,97125.78
2022-10-11T07:18:42.394Z,97118.81
2022-10-11T07:21:15.094Z,97132.88
2022-10-11T07:23:44.265Z,97127.75
2022-10-11T07:26:14.872Z,97126.19
2022-10-11T07:28:43.526Z,97136.59
2022-10-11T07:31:14.611Z,97135.84
2022-10-11T07:33:43.040Z,97134.84
2022-10-11T07:36:12.035Z,97143.13
2022-10-11T07:38:42.077Z,97144.03
2022-10-11T07:41:11.095Z,97148.47
2022-10-11T07:43:43.299Z,97146.91
2022-10-11T07:46:12.317Z,97152.94
2022-10-11T07:48:41.629Z,97148.09
2022-10-11T07:51:12.216Z,97151.38
2022-10-11T07:53:42.543Z,97147.56
2022-10-11T07:56:12.877Z,97153.09
2022-10-11T07:58:43.891Z,97154.50
2022-10-11T08:01:14.563Z,97154.59
2022-10-11T08:03:43.099Z,97157.63
2022-10-11T08:06:15.609Z,97154.34
2022-10-11T08:08:44.601Z,97160.44
2022-10-11T08:11:21.534Z,97153.97
2022-10-11T08:13:52.091Z,97165.19
2022-10-11T08:16:28.416Z,97163.91
2022-10-11T08:18:57.353Z,97151.91
2022-10-11T08:21:26.919Z,97164.03
2022-10-11T08:23:55.398Z,97166.84
2022-10-11T08:26:24.233Z,97166.06
2022-10-11T08:28:54.132Z,97167.47
2022-10-11T08:31:23.026Z,97167.53
2022-10-11T08:33:51.584Z,97165.13
2022-10-11T08:36:20.404Z,97163.81
2022-10-11T08:38:48.814Z,97175.91
2022-10-11T08:41:28.792Z,97174.28
2022-10-11T08:44:09.837Z,97168.34
2022-10-11T08:46:40.390Z,97169.28
2022-10-11T08:49:09.748Z,97171.13
2022-10-11T08:51:43.412Z,97167.06
2022-10-11T08:54:18.583Z,97172.06
2022-10-11T08:56:48.172Z,97178.47
2022-10-11T08:59:30.574Z,97175.28
2022-10-11T09:02:05.404Z,97184.66
2022-10-11T09:04:34.958Z,97175.38
2022-10-11T09:07:10.371Z,97174.63
2022-10-11T09:10:04.996Z,97174.63
2022-10-11T09:12:47.072Z,97179.09
2022-10-11T09:15:25.992Z,97176.66
2022-10-11T09:18:18.314Z,97171.00
2022-10-11T09:20:58.218Z,97170.81
2022-10-11T09:23:44.340Z,97176.19
2022-10-11T09:26:18.530Z,97174.28
2022-10-11T09:29:00.877Z,97165.53
2022-10-11T09:31:31.517Z,97170.09
2022-10-11T09:34:07.775Z,97171.03
2022-10-11T09:36:42.758Z,97177.88
2022-10-11T09:39:26.178Z,97172.31
2022-10-11T09:41:59.936Z,97175.34
2022-10-11T09:44:30.480Z,97176.19
2022-10-11T09:47:00.503Z,97175.66
2022-10-11T09:49:32.937Z,97175.38
2022-10-11T09:52:04.068Z,97178.94
2022-10-11T09:54:40.303Z,97167.72
2022-10-11T09:57:20.774Z,97172.38
2022-10-11T10:00:01.103Z,97171.47
2022-10-11T10:02:44.292Z,97177.50
2022-10-11T10:05:21.658Z,97186.00
2022-10-11T10:08:05.102Z,97176.38
2022-10-11T10:10:42.287Z,97183.22
2022-10-11T10:13:22.119Z,97178.25
2022-10-11T10:15:53.987Z,97176.03
2022-10-11T10:18:26.710Z,97178.50
2022-10-11T10:20:59.473Z,97178.22
2022-10-11T10:23:30.338Z,97181.78
2022-10-11T10:26:17.885Z,97185.91
2022-10-11T10:28:58.385Z,97173.34
2022-10-11T10:31:40.298Z,97179.38
2022-10-11T10:34:27.434Z,97179.69
2022-10-11T10:37:00.359Z,97183.06
2022-10-11T10:39:32.859Z,97181.97
2022-10-11T10:42:04.951Z,97179.22
2022-10-11T10:44:33.310Z,97183.34
2022-10-11T10:47:11.525Z,97184.72
2022-10-11T10:49:54.400Z,97191.28
2022-10-11T10:52:49.872Z,97180.63
2022-10-11T10:55:30.182Z,97181.44
2022-10-11T10:58:24.504Z,97179.22
2022-10-11T11:00:57.433Z,97187.19
2022-10-11T11:03:37.260Z,97168.50
2022-10-11T11:06:09.862Z,97181.38
2022-10-11T11:08:58.926Z,97179.69
2022-10-11T11:11:40.057Z,97182.66
2022-10-11T11:14:21.603Z,97170.28
2022-10-11T11:16:57.930Z,97169.16
2022-10-11T11:19:40.408Z,97165.28
2022-10-11T11:22:32.923Z,97173.69
2022-10-11T11:25:14.784Z,97170.41
2022-10-11T11:27:57.915Z,97173.69
2022-10-11T11:30:36.220Z,97166.56
2022-10-11T11:33:17.100Z,97167.97
2022-10-11T11:35:50.014Z,97164.19
2022-10-11T11:38:27.237Z,97160.63
2022-10-11T11:41:02.091Z,97161.50
2022-10-11T11:43:37.675Z,97157.03
2022-10-11T11:46:13.227Z,97164.97
2022-10-11T11:48:42.312Z,97159.19
2022-10-11T11:51:15.518Z,97160.84
2022-10-11T11:53:59.129Z,97153.47
2022-10-11T11:56:31.356Z,97151.63
2022-10-11T11:59:07.519Z,97159.06
2022-10-11T12:01:41.343Z,97152.22
2022-10-11T12:04:19.415Z,97146.25
2022-10-11T12:07:15.337Z,97147.06
2022-10-11T12:09:50.464Z,97147.88
2022-10-11T12:12:31.803Z,97147.03
2022-10-11T12:15:17.143Z,97146.50
2022-10-11T12:18:05.219Z,97147.91
2022-10-11T12:20:37.716Z,97143.22
2022-10-11T12:23:43.376Z,97147.38
2022-10-11T12:26:37.847Z,97144.88
2022-10-11T12:29:28.766Z,97143.50
2022-10-11T12:32:52.528Z,97140.22
2022-10-11T12:35:52.908Z,97149.00
2022-10-11T12:38:23.502Z,97144.06
2022-10-11T12:40:54.673Z,97149.25
2022-10-11T12:43:36.084Z,97141.56
2022-10-11T12:46:53.819Z,97139.59
2022-10-11T12:49:47.387Z,97140.63
2022-10-11T12:52:27.906Z,97142.56
2022-10-11T12:55:14.345Z,97135.66
2022-10-11T12:58:25.304Z,97131.81
2022-10-11T13:01:16.649Z,97132.97
2022-10-11T13:03:47.579Z,97134.91
2022-10-11T13:06:19.897Z,97132.97
2022-10-11T13:08:54.925Z,97139.00
2022-10-11T13:11:28.939Z,97126.91
2022-10-11T13:13:59.334Z,97131.56
2022-10-11T13:16:42.709Z,97139.50
2022-10-11T13:19:15.067Z,97134.03
2022-10-11T13:21:44.042Z,97134.09
2022-10-11T13:24:16.842Z,97132.97
2022-10-11T13:26:49.020Z,97129.97
2022-10-11T13:29:20.751Z,97139.59
2022-10-11T13:31:50.729Z,97135.19
2022-10-11T13:34:23.331Z,97133.81
2022-10-11T13:36:56.896Z,97134.63
2022-10-11T13:39:31.547Z,97129.19
2022-10-11T13:42:01.486Z,97124.50
2022-10-11T13:44:33.568Z,97124.78
2022-10-11T13:47:04.763Z,97119.59
2022-10-11T13:49:39.144Z,97127.78
2022-10-11T13:52:21.656Z,97125.31
2022-10-11T13:55:00.276Z,97130.00
2022-10-11T13:57:35.821Z,97124.53
2022-10-11T14:00:10.512Z,97116.56
2022-10-11T14:02:47.983Z,97124.28
2022-10-11T14:05:24.542Z,97126.75
2022-10-11T14:07:53.345Z,97125.09
2022-10-11T14:10:23.466Z,97123.72
2022-10-11T14:13:07.764Z,97121.78
2022-10-11T14:15:38.123Z,97113.81
2022-10-11T14:18:38.289Z,97116.84
2022-10-11T14:21:25.930Z,97120.56
2022-10-11T14:23:56.739Z,97116.53
2022-10-11T14:26:26.331Z,97126.22
2022-10-11T14:28:59.667Z,97128.38
2022-10-11T14:31:31.088Z,97112.84
2022-10-11T14:34:00.949Z,97123.88
2022-10-11T14:36:29.707Z,97120.41
2022-10-11T14:38:58.070Z,97121.59
2022-10-11T14:41:27.314Z,97129.94
2022-10-11T14:43:56.864Z,97133.00
2022-10-11T14:46:27.228Z,97130.84
2022-10-11T14:48:56.700Z,97128.09
2022-10-11T14:51:33.644Z,97128.16
2022-10-11T14:54:02.005Z,97129.78
2022-10-11T14:56:30.932Z,97122.66
2022-10-11T14:58:59.392Z,97128.72
2022-10-11T15:01:27.817Z,97126.00
2022-10-11T15:03:56.692Z,97131.50
2022-10-11T15:06:30.750Z,97133.16
2022-10-11T15:08:59.136Z,97123.28
2022-10-11T15:11:27.754Z,97129.31
2022-10-11T15:13:56.107Z,97127.94
2022-10-11T15:16:25.837Z,97129.03
2022-10-11T15:18:54.231Z,97137.78
2022-10-11T15:21:25.046Z,97137.28
2022-10-11T15:23:56.793Z,97137.00
2022-10-11T15:26:26.867Z,97131.50
2022-10-11T15:28:57.657Z,97121.34
2022-10-11T15:31:26.510Z,97126.56
2022-10-11T15:33:59.315Z,97125.19
2022-10-11T15:36:29.124Z,97121.06
2022-10-11T15:38:58.816Z,97133.13
2022-10-11T15:41:27.938Z,97124.94
2022-10-11T15:43:56.456Z,97122.44
2022-10-11T15:46:25.018Z,97116.69
2022-10-11T15:48:53.475Z,97126.56
2022-10-11T15:51:22.947Z,97123.28
2022-10-11T15:53:51.658Z,97120.53
2022-10-11T15:56:21.823Z,97130.97
2022-10-11T15:58:50.153Z,97123.25
2022-10-11T16:01:21.915Z,97115.81
2022-10-11T16:03:51.652Z,97121.31
2022-10-11T16:06:20.362Z,97120.47
2022-10-11T16:08:48.776Z,97118.81
2022-10-11T16:11:17.997Z,97114.69
2022-10-11T16:13:47.720Z,97119.88
2022-10-11T16:16:16.591Z,97118.72
2022-10-11T16:18:44.968Z,97126.94
2022-10-11T16:21:16.050Z,97126.06
2022-10-11T16:23:44.733Z,97121.34
2022-10-11T16:26:16.353Z,97122.69
2022-10-11T16:28:45.155Z,97117.19
2022-10-11T16:31:21.371Z,97120.72
2022-10-11T16:33:50.367Z,97124.78
2022-10-11T16:36:36.452Z,97120.94
2022-10-11T16:39:09.707Z,97115.72
2022-10-11T16:41:38.808Z,97112.66
2022-10-11T16:44:07.916Z,97120.28
2022-10-11T16:46:37.610Z,97122.69
2022-10-11T16:49:07.114Z,97121.56
2022-10-11T16:51:35.548Z,97125.94
2022-10-11T16:54:04.078Z,97122.09
2022-10-11T16:56:37.403Z,97120.66
2022-10-11T16:59:08.331Z,97129.94
2022-10-11T17:01:39.195Z,97128.00
2022-10-11T17:04:08.002Z,97131.25
2022-10-11T17:06:36.879Z,97132.34
2022-10-11T17:09:05.863Z,97130.13
2022-10-11T17:11:34.294Z,97133.91
2022-10-11T17:14:03.548Z,97133.03
2022-10-11T17:16:31.919Z,97132.97
2022-10-11T17:19:02.583Z,97138.66
2022-10-11T17:21:31.311Z,97132.22
2022-10-11T17:24:00.025Z,97141.50
2022-10-11T17:26:28.865Z,97134.88
2022-10-11T17:28:59.143Z,97134.31
2022-10-11T17:31:28.666Z,97131.88
2022-10-11T17:33:59.835Z,97135.69
2022-10-11T17:36:31.975Z,97137.03
2022-10-11T17:39:02.320Z,97141.09
2022-10-11T17:41:32.274Z,97123.22
2022-10-11T17:44:02.830Z,97141.88
2022-10-11T17:46:32.917Z,97146.53
2022-10-11T17:49:04.710Z,97133.34
2022-10-11T17:51:35.711Z,97138.75
2022-10-11T17:54:06.112Z,97131.34
2022-10-11T17:56:38.056Z,97134.84
2022-10-11T17:59:07.311Z,97138.38
2022-10-11T18:01:36.092Z,97131.75
2022-10-11T18:04:06.368Z,97140.69
2022-10-11T18:06:41.103Z,97134.63
2022-10-11T18:09:09.661Z,97120.78
2022-10-11T18:11:38.398Z,97132.34
2022-10-11T18:14:07.001Z,97144.28
2022-10-11T18:16:36.419Z,97134.44
2022-10-11T18:19:06.380Z,97130.59
2022-10-11T18:21:37.674Z,97126.94
2022-10-11T18:24:11.191Z,97115.63
2022-10-11T18:26:39.920Z,97122.19
2022-10-11T18:29:09.237Z,97118.28
2022-10-11T18:31:37.576Z,97120.13
2022-10-11T18:34:10.736Z,97127.75
2022-10-11T18:36:40.652Z,97124.69
2022-10-11T18:39:13.879Z,97112.63
2022-10-11T18:41:44.563Z,97119.16
2022-10-11T18:44:15.855Z,97118.91
2022-10-11T18:46:44.851Z,97113.38
2022-10-11T18:49:14.523Z,97118.28
2022-10-11T18:51:46.472Z,97115.72
2022-10-11T18:54:20.065Z,97111.00
2022-10-11T18:56:49.978Z,97118.53
2022-10-11T18:59:20.010Z,97126.41
2022-10-11T19:01:52.077Z,97104.47
2022-10-11T19:04:21.597Z,97118.97
2022-10-11T19:06:53.219Z,97115.59
2022-10-11T19:09:23.326Z,97113.94
2022-10-11T19:11:53.292Z,97117.75
2022-10-11T19:14:25.515Z,97120.47
2022-10-11T19:16:54.769Z,97115.72
2022-10-11T19:19:25.182Z,97124.28
2022-10-11T19:21:54.979Z,97118.81
2022-10-11T19:24:26.578Z,97122.53
2022-10-11T19:27:02.038Z,97122.47
2022-10-11T19:29:31.654Z,97120.97
2022-10-11T19:32:02.952Z,97118.50
2022-10-11T19:34:32.736Z,97124.47
2022-10-11T19:37:03.741Z,97117.59
2022-10-11T19:39:32.422Z,97122.47
2022-10-11T19:42:02.098Z,97122.97
2022-10-11T19:44:32.527Z,97116.38
2022-10-11T19:47:05.532Z,97121.50
2022-10-11T19:49:34.258Z,97122.88
2022-10-11T19:52:04.421Z,97118.78
2022-10-11T19:54:33.000Z,97122.31
2022-10-11T19:57:02.158Z,97125.31
2022-10-11T19:59:30.511Z,97122.66
2022-10-11T20:01:59.774Z,97122.91
2022-10-11T20:07:19.304Z,97126.84
2022-10-11T20:09:48.113Z,97128.19
2022-10-11T20:12:17.179Z,97124.13
2022-10-11T20:14:45.561Z,97130.31
2022-10-11T20:17:13.907Z,97132.94
2022-10-11T20:19:42.216Z,97141.13
2022-10-11T20:22:11.008Z,97137.22
2022-10-11T20:24:40.760Z,97136.13
2022-10-11T20:27:10.038Z,97136.13
2022-10-11T20:29:38.364Z,97132.59
2022-10-11T20:32:07.055Z,97129.63
2022-10-11T20:34:39.660Z,97135.06
2022-10-11T20:37:08.360Z,97135.31
2022-10-11T20:39:36.730Z,97129.88
2022-10-11T20:42:06.554Z,97126.31
2022-10-11T20:44:35.230Z,97129.41
2022-10-11T20:47:04.438Z,97127.72
2022-10-11T20:49:32.883Z,97128.31
2022-10-11T20:52:01.254Z,97133.53
2022-10-11T20:54:30.766Z,97136.50
2022-10-11T20:56:59.189Z,97134.00
2022-10-11T20:59:29.544Z,97136.50
2022-10-11T21:01:58.299Z,97116.56
2022-10-11T21:04:26.695Z,97136.88
2022-10-11T21:06:55.590Z,97132.50
2022-10-11T21:09:24.061Z,97135.47
2022-10-11T21:11:53.031Z,97134.63
2022-10-11T21:14:22.181Z,97136.53
2022-10-11T21:16:51.856Z,97138.53
2022-10-11T21:19:20.539Z,97126.81
2022-10-11T21:21:53.513Z,97131.66
2022-10-11T21:24:23.037Z,97131.09
2022-10-11T21:26:51.449Z,97124.56
2022-10-11T21:29:20.765Z,97122.69
2022-10-11T21:31:51.003Z,97128.38
2022-10-11T21:34:19.779Z,97120.91
2022-10-11T21:36:48.153Z,97136.44
2022-10-11T21:39:17.487Z,97127.78
2022-10-11T21:41:45.863Z,97130.84
2022-10-11T21:44:14.508Z,97131.44
2022-10-11T21:49:33.685Z,97136.28
2022-10-11T21:52:02.768Z,97136.53
2022-10-11T21:54:31.706Z,97121.59
2022-10-11T21:57:00.422Z,97132.28
2022-10-11T21:59:28.860Z,97126.00
2022-10-11T22:02:01.612Z,97130.00
2022-10-11T22:04:31.345Z,97128.72
2022-10-11T22:07:01.359Z,97126.00
2022-10-11T22:09:34.870Z,97119.94
2022-10-11T22:12:03.924Z,97129.75
2022-10-11T22:14:33.396Z,97121.84
2022-10-11T22:17:01.790Z,97118.88
2022-10-11T22:19:31.232Z,97123.84
2022-10-11T22:22:00.995Z,97120.06
2022-10-11T22:24:29.819Z,97120.63
2022-10-11T22:26:59.326Z,97115.44
2022-10-11T22:29:33.213Z,97110.25
2022-10-11T22:32:03.286Z,97110.56
2022-10-11T22:34:32.459Z,97111.16
2022-10-11T22:37:02.829Z,97108.78
2022-10-11T22:39:31.332Z,97108.50
2022-10-11T22:42:00.364Z,97105.22
2022-10-11T22:44:28.890Z,97110.09
2022-10-11T22:46:57.579Z,97106.63
2022-10-11T22:49:26.040Z,97105.31
2022-10-11T22:51:54.391Z,97104.25
2022-10-11T22:54:24.786Z,97107.22
2022-10-11T22:56:53.182Z,97116.78
2022-10-11T22:59:22.356Z,97114.06
2022-10-11T23:01:50.757Z,97109.78
2022-10-11T23:04:19.709Z,97108.13
2022-10-11T23:06:48.508Z,97107.28
2022-10-11T23:09:16.941Z,97111.84
2022-10-11T23:11:46.999Z,97120.22
2022-10-11T23:14:15.516Z,97106.16
2022-10-11T23:16:44.656Z,97114.63
2022-10-11T23:19:13.556Z,97110.25
2022-10-11T23:21:42.313Z,97110.78
2022-10-11T23:24:11.753Z,97111.59
2022-10-11T23:26:40.936Z,97113.50
2022-10-11T23:29:10.721Z,97109.94
2022-10-11T23:31:39.111Z,97114.06
2022-10-11T23:34:08.279Z,97109.94
2022-10-11T23:36:36.650Z,97119.41
2022-10-11T23:39:05.660Z,97115.97
2022-10-11T23:41:34.896Z,97107.78
2022-10-11T23:44:03.251Z,97110.78
2022-10-11T23:46:33.009Z,97106.41
2022-10-11T23:49:01.821Z,97116.94
2022-10-11T23:51:30.636Z,97116.69
2022-10-11T23:53:59.135Z,97111.50
2022-10-11T23:56:27.647Z,97098.28
2022-10-11T23:58:56.055Z,97113.97
